CSLBA LPPT-LPCS
Flight info
| Callsign | CSLBA |
|---|---|
| Flight time | 0h -5m |
| Altitude | 13000 |
| Route | ELNUB DCT LAZET |
| Aircraft | B350/L-SBDFGRYZ/LB1 |
Departure
| Time | 2026-04-24 19:15 |
|---|---|
| Airport | Lisbon Humberto Delgado Airport (LPPT) |
Arrival
| Time | 2026-04-24 19:10 |
|---|---|
| Airport | Cascais Airport (LPCS) |
| Time | Latitude | Longitude | Altitude | Speed | Heading |
|---|---|---|---|---|---|
| 2026-04-24 19:01 | 38.77835 | -9.13273 | 348 ft | 0 kts | 254° |
| 2026-04-24 19:08 | 38.77835 | -9.13274 | 348 ft | 1 kts | 254° |
| 2026-04-24 19:08 | 38.77823 | -9.13284 | 355 ft | 5 kts | 135° |
| 2026-04-24 19:08 | 38.77792 | -9.13215 | 351 ft | 12 kts | 146° |
| 2026-04-24 19:09 | 38.77743 | -9.13264 | 348 ft | 9 kts | 257° |
| 2026-04-24 19:09 | 38.77734 | -9.13318 | 351 ft | 6 kts | 257° |
| 2026-04-24 19:09 | 38.77710 | -9.13359 | 349 ft | 6 kts | 206° |
| 2026-04-24 19:09 | 38.77662 | -9.13385 | 352 ft | 8 kts | 203° |
| 2026-04-24 19:10 | 38.77610 | -9.13414 | 349 ft | 9 kts | 204° |
| 2026-04-24 19:10 | 38.77545 | -9.13447 | 348 ft | 11 kts | 188° |
| 2026-04-24 19:10 | 38.77464 | -9.13422 | 352 ft | 13 kts | 166° |
| 2026-04-24 19:10 | 38.77368 | -9.13394 | 349 ft | 13 kts | 168° |
| 2026-04-24 19:11 | 38.77307 | -9.13448 | 347 ft | 10 kts | 253° |
| 2026-04-24 19:11 | 38.77291 | -9.13536 | 352 ft | 11 kts | 257° |
| 2026-04-24 19:11 | 38.77276 | -9.13630 | 351 ft | 10 kts | 258° |
| 2026-04-24 19:11 | 38.77263 | -9.13711 | 350 ft | 9 kts | 258° |
| 2026-04-24 19:12 | 38.77255 | -9.13758 | 348 ft | 8 kts | 258° |
| 2026-04-24 19:12 | 38.77243 | -9.13820 | 349 ft | 0 kts | 242° |
| 2026-04-24 19:12 | 38.77235 | -9.13835 | 348 ft | 7 kts | 231° |
| 2026-04-24 19:12 | 38.77173 | -9.13876 | 351 ft | 12 kts | 202° |
| 2026-04-24 19:13 | 38.77136 | -9.13924 | 350 ft | 10 kts | 246° |
| 2026-04-24 19:13 | 38.77132 | -9.14014 | 349 ft | 7 kts | 290° |
| 2026-04-24 19:13 | 38.77145 | -9.14055 | 350 ft | 4 kts | 294° |
| 2026-04-24 19:13 | 38.77154 | -9.14079 | 352 ft | 0 kts | 294° |
| 2026-04-24 19:14 | 38.77157 | -9.14087 | 350 ft | 5 kts | 297° |
| 2026-04-24 19:14 | 38.77201 | -9.14090 | 353 ft | 9 kts | 22° |
| 2026-04-24 19:14 | 38.77382 | -9.14000 | 355 ft | 64 kts | 24° |
| 2026-04-24 19:14 | 38.78038 | -9.13636 | 393 ft | 129 kts | 18° |
| 2026-04-24 19:15 | 38.78917 | -9.13102 | 869 ft | 149 kts | 20° |
| 2026-04-24 19:15 | 38.79920 | -9.12479 | 1059 ft | 175 kts | 28° |
| 2026-04-24 19:15 | 38.80785 | -9.11341 | 1145 ft | 188 kts | 60° |
| 2026-04-24 19:15 | 38.81074 | -9.09671 | 1083 ft | 201 kts | 90° |
| 2026-04-24 19:16 | 38.79827 | -9.06471 | 1082 ft | 206 kts | 141° |
| 2026-04-24 19:16 | 38.78580 | -9.05624 | 1045 ft | 207 kts | 167° |
| 2026-04-24 19:16 | 38.77142 | -9.05450 | 975 ft | 207 kts | 187° |
| 2026-04-24 19:17 | 38.75749 | -9.05826 | 1027 ft | 203 kts | 199° |
| 2026-04-24 19:17 | 38.74390 | -9.06368 | 1037 ft | 203 kts | 203° |
| 2026-04-24 19:17 | 38.73087 | -9.07020 | 1061 ft | 203 kts | 207° |
| 2026-04-24 19:17 | 38.71841 | -9.07902 | 900 ft | 206 kts | 223° |
| 2026-04-24 19:18 | 38.70900 | -9.09235 | 967 ft | 198 kts | 239° |
| 2026-04-24 19:18 | 38.70252 | -9.10791 | 966 ft | 195 kts | 250° |
| 2026-04-24 19:18 | 38.69735 | -9.12390 | 980 ft | 193 kts | 253° |
| 2026-04-24 19:18 | 38.69334 | -9.14025 | 954 ft | 191 kts | 260° |
| 2026-04-24 19:19 | 38.69045 | -9.15654 | 979 ft | 188 kts | 263° |
| 2026-04-24 19:19 | 38.68801 | -9.17292 | 1005 ft | 188 kts | 263° |
| 2026-04-24 19:19 | 38.68578 | -9.18942 | 1035 ft | 186 kts | 263° |
| 2026-04-24 19:19 | 38.68317 | -9.20555 | 1096 ft | 185 kts | 258° |
| 2026-04-24 19:20 | 38.67947 | -9.22146 | 1050 ft | 192 kts | 256° |
| 2026-04-24 19:20 | 38.67511 | -9.23777 | 1018 ft | 194 kts | 253° |
| 2026-04-24 19:20 | 38.67065 | -9.25385 | 1040 ft | 185 kts | 253° |
| 2026-04-24 19:20 | 38.66581 | -9.26869 | 995 ft | 175 kts | 249° |
| 2026-04-24 19:21 | 38.66094 | -9.28283 | 958 ft | 175 kts | 249° |
| 2026-04-24 19:21 | 38.65600 | -9.29702 | 942 ft | 171 kts | 249° |
| 2026-04-24 19:21 | 38.65113 | -9.31101 | 952 ft | 169 kts | 251° |
| 2026-04-24 19:21 | 38.64868 | -9.32418 | 1004 ft | 143 kts | 280° |
| 2026-04-24 19:22 | 38.65174 | -9.33102 | 949 ft | 131 kts | 332° |
| 2026-04-24 19:22 | 38.66360 | -9.33278 | 903 ft | 127 kts | 348° |
| 2026-04-24 19:22 | 38.67145 | -9.33552 | 935 ft | 110 kts | 342° |
| 2026-04-24 19:22 | 38.67885 | -9.33832 | 874 ft | 111 kts | 343° |
| 2026-04-24 19:23 | 38.68632 | -9.34117 | 814 ft | 112 kts | 345° |
| 2026-04-24 19:23 | 38.69398 | -9.34389 | 719 ft | 115 kts | 342° |
| 2026-04-24 19:23 | 38.70148 | -9.34660 | 639 ft | 110 kts | 343° |
| 2026-04-24 19:23 | 38.70850 | -9.34916 | 549 ft | 100 kts | 342° |
| 2026-04-24 19:24 | 38.71511 | -9.35157 | 424 ft | 97 kts | 345° |
| 2026-04-24 19:24 | 38.72119 | -9.35376 | 322 ft | 79 kts | 343° |
| 2026-04-24 19:24 | 38.72510 | -9.35520 | 322 ft | 26 kts | 343° |
| 2026-04-24 19:24 | 38.72641 | -9.35565 | 321 ft | 16 kts | 352° |
| 2026-04-24 19:25 | 38.72682 | -9.35588 | 319 ft | 4 kts | 200° |
| 2026-04-24 19:25 | 38.72624 | -9.35561 | 321 ft | 12 kts | 163° |
| 2026-04-24 19:25 | 38.72541 | -9.35562 | 322 ft | 13 kts | 250° |
| 2026-04-24 19:25 | 38.72536 | -9.35666 | 322 ft | 11 kts | 297° |
| 2026-04-24 19:26 | 38.72527 | -9.35751 | 322 ft | 10 kts | 250° |
| 2026-04-24 19:26 | 38.72507 | -9.35775 | 321 ft | 0 kts | 163° |